createdAt,value
2017-04-15T00:00:02.138Z,10.40
2017-04-15T00:01:01.980Z,10.40
2017-04-15T00:02:01.075Z,10.50
2017-04-15T00:03:00.126Z,10.50
2017-04-15T00:03:59.210Z,10.50
2017-04-15T00:04:58.287Z,10.50
2017-04-15T00:05:58.240Z,10.40
2017-04-15T00:06:57.318Z,10.50
2017-04-15T00:07:56.402Z,10.50
2017-04-15T00:08:55.499Z,10.40
2017-04-15T00:09:54.604Z,10.40
2017-04-15T00:10:53.667Z,10.40
2017-04-15T00:11:52.750Z,10.50
2017-04-15T00:12:51.832Z,10.50
2017-04-15T00:13:50.898Z,10.50
2017-04-15T00:14:49.967Z,10.50
2017-04-15T00:15:49.035Z,10.50
2017-04-15T00:16:49.114Z,10.40
2017-04-15T00:17:48.175Z,10.50
2017-04-15T00:18:47.252Z,10.50
2017-04-15T00:19:46.346Z,10.50
2017-04-15T00:20:45.430Z,10.50
2017-04-15T00:21:44.494Z,10.50
2017-04-15T00:22:43.598Z,10.50
2017-04-15T00:23:42.719Z,10.40
2017-04-15T00:24:41.777Z,10.40
2017-04-15T00:25:40.851Z,10.30
2017-04-15T00:26:39.942Z,10.30
2017-04-15T00:27:39.251Z,10.20
2017-04-15T00:28:38.319Z,10.20
2017-04-15T00:29:37.378Z,10.10
2017-04-15T00:30:36.447Z,10.10
2017-04-15T00:31:35.599Z,10.00
2017-04-15T00:32:34.669Z,9.90
2017-04-15T00:33:33.778Z,9.80
2017-04-15T00:34:32.855Z,9.80
2017-04-15T00:35:31.910Z,9.80
2017-04-15T00:36:30.983Z,9.80
2017-04-15T00:37:30.040Z,9.80
2017-04-15T00:38:29.270Z,9.80
2017-04-15T00:39:28.359Z,9.70
2017-04-15T00:40:27.418Z,9.70
2017-04-15T00:41:26.478Z,9.60
2017-04-15T00:42:25.714Z,9.60
2017-04-15T00:43:24.767Z,9.60
2017-04-15T00:44:23.853Z,9.50
2017-04-15T00:45:22.911Z,9.50
2017-04-15T00:46:22.711Z,9.40
2017-04-15T00:47:21.758Z,9.50
2017-04-15T00:48:20.831Z,9.40
2017-04-15T00:49:20.135Z,9.40
2017-04-15T00:50:19.199Z,9.40
2017-04-15T00:51:18.270Z,9.40
2017-04-15T00:52:17.338Z,9.40
2017-04-15T00:53:17.177Z,9.20
2017-04-15T00:54:16.239Z,9.30
2017-04-15T00:55:15.318Z,9.30
2017-04-15T00:56:14.395Z,9.20
2017-04-15T00:57:14.205Z,9.10
2017-04-15T00:58:13.278Z,9.20
2017-04-15T00:59:13.085Z,9.10
2017-04-15T01:00:12.542Z,9.10
2017-04-15T01:01:11.582Z,9.20
2017-04-15T01:02:10.634Z,9.10
2017-04-15T01:03:09.706Z,9.10
2017-04-15T01:04:08.778Z,9.10
2017-04-15T01:05:07.855Z,9.00
2017-04-15T01:06:06.938Z,9.00
2017-04-15T01:07:06.006Z,9.00
2017-04-15T01:08:05.065Z,9.00
2017-04-15T01:09:04.239Z,9.00
2017-04-15T01:10:03.346Z,9.00
2017-04-15T01:11:02.572Z,8.90
2017-04-15T01:12:01.637Z,8.90
2017-04-15T01:13:00.702Z,9.00
2017-04-15T01:14:00.047Z,8.90
2017-04-15T01:14:59.863Z,8.90
2017-04-15T01:15:58.927Z,8.90
2017-04-15T01:16:58.155Z,8.90
2017-04-15T01:17:57.210Z,8.90
2017-04-15T01:18:56.270Z,8.80
2017-04-15T01:19:55.323Z,8.80
2017-04-15T01:20:54.389Z,8.80
2017-04-15T01:21:53.620Z,8.80
2017-04-15T01:22:52.666Z,8.80
2017-04-15T01:23:51.770Z,8.70
2017-04-15T01:24:50.837Z,8.70
2017-04-15T01:25:49.897Z,8.70
2017-04-15T01:26:49.703Z,8.60
2017-04-15T01:27:48.907Z,8.70
2017-04-15T01:28:47.978Z,8.70
2017-04-15T01:29:47.766Z,8.60
2017-04-15T01:30:46.883Z,8.60
2017-04-15T01:31:45.942Z,8.60
2017-04-15T01:32:44.997Z,8.60
2017-04-15T01:33:44.076Z,8.60
2017-04-15T01:34:43.906Z,8.60
2017-04-15T01:35:42.978Z,8.60
2017-04-15T01:36:42.082Z,8.60
2017-04-15T01:37:41.136Z,8.60
2017-04-15T01:38:40.195Z,8.60
2017-04-15T01:39:39.270Z,8.60
2017-04-15T01:40:38.350Z,8.60
2017-04-15T01:41:37.430Z,8.60
2017-04-15T01:42:36.481Z,8.60
2017-04-15T01:43:35.569Z,8.60
2017-04-15T01:44:34.662Z,8.60
2017-04-15T01:45:33.746Z,8.60
2017-04-15T01:46:32.821Z,8.60
2017-04-15T01:47:31.883Z,8.60
2017-04-15T01:48:31.672Z,8.50
2017-04-15T01:49:30.749Z,8.60
2017-04-15T01:50:30.064Z,8.60
2017-04-15T01:51:29.109Z,8.60
2017-04-15T01:52:28.162Z,8.60
2017-04-15T01:53:27.963Z,8.50
2017-04-15T01:54:27.756Z,8.50
2017-04-15T01:55:26.826Z,8.60
2017-04-15T01:56:25.910Z,8.60
2017-04-15T01:57:24.974Z,8.60
2017-04-15T01:58:24.067Z,8.60
2017-04-15T01:59:23.126Z,8.60
2017-04-15T02:00:22.185Z,8.60
2017-04-15T02:01:21.630Z,8.50
2017-04-15T02:02:20.862Z,8.60
2017-04-15T02:03:20.658Z,8.50
2017-04-15T02:04:19.724Z,8.60
2017-04-15T02:05:18.778Z,8.60
2017-04-15T02:06:17.842Z,8.60
2017-04-15T02:07:16.930Z,8.50
2017-04-15T02:08:15.985Z,8.50
2017-04-15T02:09:15.807Z,8.50
2017-04-15T02:10:14.883Z,8.50
2017-04-15T02:11:13.934Z,8.50
2017-04-15T02:12:13.352Z,8.50
2017-04-15T02:13:12.398Z,8.50
2017-04-15T02:14:11.446Z,8.50
2017-04-15T02:15:10.533Z,8.50
2017-04-15T02:16:09.593Z,8.50
2017-04-15T02:17:09.407Z,8.50
2017-04-15T02:18:08.543Z,8.50
2017-04-15T02:19:07.610Z,8.50
2017-04-15T02:20:06.673Z,8.50
2017-04-15T02:21:05.743Z,8.50
2017-04-15T02:22:04.823Z,8.60
2017-04-15T02:23:04.798Z,8.50
2017-04-15T02:24:04.622Z,8.50
2017-04-15T02:25:03.782Z,8.60
2017-04-15T02:26:02.839Z,8.60
2017-04-15T02:27:01.910Z,8.50
2017-04-15T02:28:01.007Z,8.60
2017-04-15T02:29:00.094Z,8.60
2017-04-15T02:29:59.170Z,8.60
2017-04-15T02:30:58.228Z,8.60
2017-04-15T02:31:57.317Z,8.60
2017-04-15T02:32:56.391Z,8.60
2017-04-15T02:33:55.603Z,8.60
2017-04-15T02:34:54.707Z,8.60
2017-04-15T02:35:53.790Z,8.60
2017-04-15T02:36:52.874Z,8.60
2017-04-15T02:37:51.982Z,8.60
2017-04-15T02:38:51.046Z,8.70
2017-04-15T02:39:50.118Z,8.70
2017-04-15T02:40:49.186Z,8.80
2017-04-15T02:41:48.262Z,8.80
2017-04-15T02:42:47.655Z,8.80
2017-04-15T02:43:46.743Z,8.90
2017-04-15T02:44:45.949Z,8.90
2017-04-15T02:45:45.014Z,8.90
2017-04-15T02:46:44.099Z,9.00
2017-04-15T02:47:43.165Z,9.00
2017-04-15T02:48:42.986Z,9.00
2017-04-15T02:49:42.043Z,9.00
2017-04-15T02:50:41.110Z,9.10
2017-04-15T02:51:40.170Z,9.10
2017-04-15T02:52:39.226Z,9.10
2017-04-15T02:53:38.294Z,9.10
2017-04-15T02:54:38.081Z,9.00
2017-04-15T02:55:37.551Z,9.10
2017-04-15T02:56:36.619Z,9.10
2017-04-15T02:57:35.675Z,9.20
2017-04-15T02:58:34.730Z,9.20
2017-04-15T02:59:33.782Z,9.20
2017-04-15T03:00:32.876Z,9.20
2017-04-15T03:01:32.158Z,9.20
2017-04-15T03:02:31.224Z,9.20
2017-04-15T03:03:30.290Z,9.30
2017-04-15T03:04:29.358Z,9.20
2017-04-15T03:05:29.157Z,9.20
2017-04-15T03:06:28.243Z,9.20
2017-04-15T03:07:27.450Z,9.20
2017-04-15T03:08:26.509Z,9.30
2017-04-15T03:09:26.302Z,9.30
2017-04-15T03:10:25.351Z,9.30
2017-04-15T03:11:24.411Z,9.30
2017-04-15T03:12:23.470Z,9.30
2017-04-15T03:13:22.534Z,9.40
2017-04-15T03:14:21.618Z,9.40
2017-04-15T03:15:20.667Z,9.40
2017-04-15T03:16:19.713Z,9.40
2017-04-15T03:17:18.779Z,9.40
2017-04-15T03:18:18.613Z,9.30
2017-04-15T03:19:17.731Z,9.40
2017-04-15T03:20:16.806Z,9.40
2017-04-15T03:21:15.891Z,9.40
2017-04-15T03:22:14.982Z,9.40
2017-04-15T03:23:14.033Z,9.40
2017-04-15T03:24:13.371Z,9.40
2017-04-15T03:25:12.423Z,9.30
2017-04-15T03:26:11.483Z,9.30
2017-04-15T03:27:10.570Z,9.30
2017-04-15T03:28:09.615Z,9.40
2017-04-15T03:29:08.694Z,9.40
2017-04-15T03:30:07.827Z,9.40
2017-04-15T03:31:07.131Z,9.40
2017-04-15T03:32:06.219Z,9.40
2017-04-15T03:33:05.282Z,9.40
2017-04-15T03:34:04.373Z,9.40
2017-04-15T03:35:03.703Z,9.40
2017-04-15T03:36:02.767Z,9.40
2017-04-15T03:37:01.828Z,9.50
2017-04-15T03:38:01.379Z,9.50
2017-04-15T03:39:00.434Z,9.50
2017-04-15T03:39:59.491Z,9.60
2017-04-15T03:40:58.581Z,9.60
2017-04-15T03:41:57.695Z,9.50
2017-04-15T03:42:56.745Z,9.50
2017-04-15T03:43:56.546Z,9.50
2017-04-15T03:44:56.450Z,9.60
2017-04-15T03:45:55.668Z,9.60
2017-04-15T03:46:54.750Z,9.60
2017-04-15T03:47:53.838Z,9.70
2017-04-15T03:48:52.902Z,9.70
2017-04-15T03:49:51.967Z,9.70
2017-04-15T03:50:51.778Z,9.70
2017-04-15T03:51:50.893Z,9.70
2017-04-15T03:52:49.950Z,9.70
2017-04-15T03:53:49.022Z,9.70
2017-04-15T03:54:48.079Z,9.70
2017-04-15T03:55:47.134Z,9.70
2017-04-15T03:56:46.363Z,9.80
2017-04-15T03:57:45.435Z,9.80
2017-04-15T03:58:44.487Z,9.80
2017-04-15T03:59:43.546Z,9.80
2017-04-15T04:00:42.605Z,9.90
2017-04-15T04:01:41.669Z,9.80
2017-04-15T04:02:41.486Z,9.80
2017-04-15T04:03:40.566Z,9.90
2017-04-15T04:04:39.654Z,9.90
2017-04-15T04:05:38.723Z,9.90
2017-04-15T04:06:37.810Z,9.90
2017-04-15T04:07:37.407Z,9.90
2017-04-15T04:08:36.469Z,9.90
2017-04-15T04:09:35.526Z,9.90
2017-04-15T04:10:34.599Z,10.00
2017-04-15T04:11:34.401Z,10.00
2017-04-15T04:12:34.215Z,10.00
2017-04-15T04:13:33.329Z,10.00
2017-04-15T04:14:32.396Z,10.10
2017-04-15T04:15:31.477Z,10.10
2017-04-15T04:16:30.543Z,10.10
2017-04-15T04:17:29.627Z,10.20
2017-04-15T04:18:28.830Z,10.20
2017-04-15T04:19:27.903Z,10.10
2017-04-15T04:20:26.970Z,10.10
2017-04-15T04:21:26.034Z,10.20
2017-04-15T04:22:25.139Z,10.20
2017-04-15T04:23:24.203Z,10.20
2017-04-15T04:24:23.295Z,10.30
2017-04-15T04:25:22.350Z,10.30
2017-04-15T04:26:21.410Z,10.30
2017-04-15T04:27:20.458Z,10.30
2017-04-15T04:28:19.523Z,10.30
2017-04-15T04:29:18.766Z,10.30
2017-04-15T04:30:17.822Z,10.30
2017-04-15T04:31:16.885Z,10.30
2017-04-15T04:32:15.954Z,10.30
2017-04-15T04:33:15.043Z,10.30
2017-04-15T04:34:14.099Z,10.30
2017-04-15T04:35:13.211Z,10.30
2017-04-15T04:36:12.322Z,10.30
2017-04-15T04:37:11.381Z,10.30
2017-04-15T04:38:10.443Z,10.30
2017-04-15T04:39:09.539Z,10.30
2017-04-15T04:40:08.858Z,10.30
2017-04-15T04:41:07.926Z,10.30
2017-04-15T04:42:07.032Z,10.30
2017-04-15T04:43:06.095Z,10.30
2017-04-15T04:44:05.418Z,10.30
2017-04-15T04:45:04.470Z,10.30
2017-04-15T04:46:03.568Z,10.30
2017-04-15T04:47:02.642Z,10.30
2017-04-15T04:48:01.745Z,10.40
2017-04-15T04:49:00.829Z,10.40
2017-04-15T04:49:59.894Z,10.40
2017-04-15T04:50:59.102Z,10.30
2017-04-15T04:51:58.170Z,10.40
2017-04-15T04:52:57.227Z,10.30
2017-04-15T04:53:56.306Z,10.40
2017-04-15T04:54:55.462Z,10.30
2017-04-15T04:55:55.479Z,10.20
2017-04-15T04:56:55.318Z,10.20
2017-04-15T04:57:54.395Z,10.20
2017-04-15T04:58:53.481Z,10.20
2017-04-15T04:59:52.586Z,10.20
2017-04-15T05:00:52.394Z,10.20
2017-04-15T05:01:51.857Z,10.20
2017-04-15T05:02:50.962Z,10.20
2017-04-15T05:03:50.027Z,10.20
2017-04-15T05:04:49.092Z,10.20
2017-04-15T05:05:48.148Z,10.20
2017-04-15T05:06:47.218Z,10.20
2017-04-15T05:07:46.497Z,10.20
2017-04-15T05:08:45.564Z,10.10
2017-04-15T05:09:44.630Z,10.10
2017-04-15T05:10:43.714Z,10.20
2017-04-15T05:11:42.778Z,10.10
2017-04-15T05:12:41.847Z,10.20
2017-04-15T05:13:40.931Z,10.20
2017-04-15T05:14:40.105Z,10.20
2017-04-15T05:15:39.546Z,10.20
2017-04-15T05:16:38.603Z,10.20
2017-04-15T05:17:37.661Z,10.20
2017-04-15T05:18:37.059Z,10.20
2017-04-15T05:19:36.194Z,10.20
2017-04-15T05:20:35.250Z,10.10
2017-04-15T05:21:35.050Z,10.10
2017-04-15T05:22:34.182Z,10.20
2017-04-15T05:23:33.234Z,10.20
2017-04-15T05:24:32.326Z,10.20
2017-04-15T05:25:31.386Z,10.20
2017-04-15T05:26:30.453Z,10.20
2017-04-15T05:27:29.529Z,10.20
2017-04-15T05:28:28.597Z,10.20
2017-04-15T05:29:27.843Z,10.20
2017-04-15T05:30:27.637Z,10.10
2017-04-15T05:31:26.714Z,10.20
2017-04-15T05:32:25.786Z,10.20
2017-04-15T05:33:24.874Z,10.20
2017-04-15T05:34:23.933Z,10.20
2017-04-15T05:35:23.014Z,10.10
2017-04-15T05:36:22.110Z,10.10
2017-04-15T05:37:21.168Z,10.20
2017-04-15T05:38:20.242Z,10.10
2017-04-15T05:39:19.295Z,10.20
2017-04-15T05:40:19.262Z,10.20
2017-04-15T05:41:18.338Z,10.20
2017-04-15T05:42:17.407Z,10.30
2017-04-15T05:43:16.463Z,10.30
2017-04-15T05:44:16.306Z,10.20
2017-04-15T05:45:15.369Z,10.30
2017-04-15T05:46:14.451Z,10.30
2017-04-15T05:47:13.519Z,10.30
2017-04-15T05:48:12.594Z,10.30
2017-04-15T05:49:11.679Z,10.40
2017-04-15T05:50:10.754Z,10.40
2017-04-15T05:51:10.851Z,10.40
2017-04-15T05:52:09.946Z,10.50
2017-04-15T05:53:09.019Z,10.50
2017-04-15T05:54:08.112Z,10.40
2017-04-15T05:55:07.168Z,10.50
2017-04-15T05:56:06.243Z,10.40
2017-04-15T05:57:05.328Z,10.50
2017-04-15T05:58:04.386Z,10.50
2017-04-15T05:59:03.459Z,10.50
2017-04-15T06:00:02.542Z,10.50
2017-04-15T06:01:02.363Z,10.50
2017-04-15T06:02:08.239Z,10.50
2017-04-15T06:03:07.291Z,10.50
2017-04-15T06:04:06.348Z,10.60
2017-04-15T06:05:05.519Z,10.60
2017-04-15T06:06:04.603Z,10.60
2017-04-15T06:07:03.685Z,10.60
2017-04-15T06:08:03.041Z,10.50
2017-04-15T06:09:02.121Z,10.50
2017-04-15T06:10:01.188Z,10.50
2017-04-15T06:11:00.263Z,10.50
2017-04-15T06:12:00.304Z,10.50
2017-04-15T06:12:59.630Z,10.50
2017-04-15T06:13:58.682Z,10.50
2017-04-15T06:14:57.747Z,10.40
2017-04-15T06:15:57.138Z,10.40
2017-04-15T06:16:56.246Z,10.40
2017-04-15T06:17:55.315Z,10.40
2017-04-15T06:18:54.410Z,10.40
2017-04-15T06:19:53.477Z,10.40
2017-04-15T06:20:52.552Z,10.40
2017-04-15T06:21:52.362Z,10.40
2017-04-15T06:22:51.434Z,10.40
2017-04-15T06:23:50.816Z,10.40
2017-04-15T06:24:50.988Z,10.30
2017-04-15T06:25:50.063Z,10.40
2017-04-15T06:26:49.126Z,10.40
2017-04-15T06:27:48.194Z,10.30
2017-04-15T06:28:47.255Z,10.30
2017-04-15T06:29:46.508Z,10.30
2017-04-15T06:30:45.652Z,10.30
2017-04-15T06:31:44.721Z,10.30
2017-04-15T06:32:43.799Z,10.40
2017-04-15T06:33:42.906Z,10.50
2017-04-15T06:34:42.285Z,10.50
2017-04-15T06:35:41.366Z,10.60
2017-04-15T06:36:40.446Z,10.60
2017-04-15T06:37:39.515Z,10.60
2017-04-15T06:38:38.646Z,10.60
2017-04-15T06:39:37.743Z,10.70
2017-04-15T06:40:37.071Z,10.70
2017-04-15T06:41:36.161Z,10.80
2017-04-15T06:42:35.247Z,10.80
2017-04-15T06:43:34.338Z,10.90
2017-04-15T06:44:33.459Z,10.90
2017-04-15T06:45:33.271Z,10.90
2017-04-15T06:46:32.418Z,11.00
2017-04-15T06:47:31.687Z,11.10
2017-04-15T06:48:30.807Z,11.20
2017-04-15T06:49:30.661Z,11.20
2017-04-15T06:50:29.719Z,11.20
2017-04-15T06:51:29.374Z,11.20
2017-04-15T06:52:28.445Z,11.20
2017-04-15T06:53:27.518Z,11.20
2017-04-15T06:54:26.603Z,11.20
2017-04-15T06:55:25.666Z,11.10
2017-04-15T06:56:24.758Z,10.90
2017-04-15T06:57:23.876Z,10.80
2017-04-15T06:58:22.961Z,10.80
2017-04-15T06:59:22.072Z,10.80
2017-04-15T07:00:21.175Z,10.80
2017-04-15T07:01:20.254Z,10.70
2017-04-15T07:02:20.230Z,10.70
2017-04-15T07:03:19.332Z,10.70
2017-04-15T07:04:18.748Z,10.70
2017-04-15T07:05:18.261Z,10.70
2017-04-15T07:06:17.384Z,10.60
2017-04-15T07:07:16.459Z,10.50
2017-04-15T07:08:15.559Z,10.60
2017-04-15T07:09:14.650Z,10.60
2017-04-15T07:10:13.738Z,10.60
2017-04-15T07:11:13.569Z,10.70
2017-04-15T07:12:19.569Z,10.80
2017-04-15T07:13:18.855Z,10.90
2017-04-15T07:14:17.934Z,11.00
2017-04-15T07:15:17.042Z,11.00
2017-04-15T07:16:16.108Z,11.10
2017-04-15T07:17:15.191Z,11.10
2017-04-15T07:18:14.287Z,11.10
2017-04-15T07:19:13.443Z,11.10
2017-04-15T07:20:12.521Z,11.00
2017-04-15T07:21:11.611Z,11.00
2017-04-15T07:22:10.752Z,11.00
2017-04-15T07:23:09.843Z,10.90
2017-04-15T07:24:09.520Z,10.90
2017-04-15T07:25:08.631Z,10.80
2017-04-15T07:26:08.470Z,10.70
2017-04-15T07:27:07.554Z,10.60
2017-04-15T07:28:06.638Z,10.70
2017-04-15T07:29:05.736Z,10.80
2017-04-15T07:30:04.848Z,10.80
2017-04-15T07:31:04.176Z,10.80
2017-04-15T07:32:03.624Z,10.90
2017-04-15T07:33:02.750Z,10.90
2017-04-15T07:34:01.871Z,10.80
2017-04-15T07:35:01.395Z,10.80
2017-04-15T07:36:00.859Z,10.80
2017-04-15T07:36:59.957Z,10.80
2017-04-15T07:37:59.051Z,10.80
2017-04-15T07:38:58.906Z,10.70
2017-04-15T07:39:58.006Z,10.70
2017-04-15T07:40:57.339Z,10.60
2017-04-15T07:41:56.417Z,10.60
2017-04-15T07:42:55.511Z,10.60
2017-04-15T07:43:54.570Z,10.50
2017-04-15T07:44:53.678Z,10.50
2017-04-15T07:45:52.758Z,10.50
2017-04-15T07:46:51.860Z,10.40
2017-04-15T07:47:50.971Z,10.40
2017-04-15T07:48:50.772Z,10.30
2017-04-15T07:49:49.851Z,10.40
2017-04-15T07:50:49.666Z,10.40
2017-04-15T07:51:48.807Z,10.30
2017-04-15T07:52:47.922Z,10.30
2017-04-15T07:53:47.739Z,10.20
2017-04-15T07:54:46.822Z,10.30
2017-04-15T07:55:45.902Z,10.30
2017-04-15T07:56:45.218Z,10.20
2017-04-15T07:57:44.750Z,10.20
2017-04-15T07:58:43.832Z,10.20
2017-04-15T07:59:42.906Z,10.10
2017-04-15T08:00:42.023Z,10.00
2017-04-15T08:01:41.865Z,10.00
2017-04-15T08:02:40.935Z,10.10
2017-04-15T08:03:40.040Z,10.10
2017-04-15T08:04:39.145Z,10.10
2017-04-15T08:05:38.535Z,10.10
2017-04-15T08:06:37.611Z,10.10
2017-04-15T08:07:36.707Z,10.10
2017-04-15T08:08:36.028Z,10.10
2017-04-15T08:09:35.859Z,10.10
2017-04-15T08:10:34.942Z,10.10
2017-04-15T08:11:34.070Z,10.10
2017-04-15T08:12:33.154Z,10.10
2017-04-15T08:13:32.248Z,10.00
2017-04-15T08:14:31.347Z,10.00
2017-04-15T08:15:30.444Z,10.00
2017-04-15T08:16:29.534Z,10.10
2017-04-15T08:17:28.635Z,10.10
2017-04-15T08:18:27.771Z,10.10
2017-04-15T08:19:27.017Z,10.20
2017-04-15T08:20:26.110Z,10.20
2017-04-15T08:21:25.195Z,10.20
2017-04-15T08:22:24.282Z,10.20
2017-04-15T08:23:23.430Z,10.30
2017-04-15T08:24:22.519Z,10.30
2017-04-15T08:25:21.654Z,10.40
2017-04-15T08:26:20.758Z,10.40
2017-04-15T08:27:19.882Z,10.30
2017-04-15T08:28:19.735Z,10.30
2017-04-15T08:29:18.865Z,10.30
2017-04-15T08:30:18.875Z,10.30
2017-04-15T08:31:18.031Z,10.30
2017-04-15T08:32:17.124Z,10.30
2017-04-15T08:33:16.197Z,10.40
2017-04-15T08:34:15.290Z,10.40
2017-04-15T08:35:14.370Z,10.40
2017-04-15T08:36:13.763Z,10.50
2017-04-15T08:37:12.862Z,10.50
2017-04-15T08:38:11.961Z,10.50
2017-04-15T08:39:11.802Z,10.40
2017-04-15T08:40:10.911Z,10.50
2017-04-15T08:41:10.142Z,10.40
2017-04-15T08:42:09.978Z,10.40
2017-04-15T08:43:09.082Z,10.50
2017-04-15T08:44:08.164Z,10.50
2017-04-15T08:45:07.270Z,10.60
2017-04-15T08:46:06.355Z,10.60
2017-04-15T08:47:05.470Z,10.60
2017-04-15T08:48:05.311Z,10.60
2017-04-15T08:49:04.435Z,10.60
2017-04-15T08:50:03.594Z,10.60
2017-04-15T08:51:02.706Z,10.60
2017-04-15T08:52:01.950Z,10.70
2017-04-15T08:53:01.042Z,10.60
2017-04-15T08:54:00.131Z,10.70
2017-04-15T08:54:59.250Z,10.70
2017-04-15T08:55:58.359Z,10.80
2017-04-15T08:56:57.451Z,10.80
2017-04-15T08:57:56.895Z,10.80
2017-04-15T08:58:55.985Z,10.80
2017-04-15T08:59:55.083Z,10.70
2017-04-15T09:00:54.169Z,10.70
2017-04-15T09:01:53.255Z,10.60
2017-04-15T09:02:52.514Z,10.60
2017-04-15T09:03:51.632Z,10.60
2017-04-15T09:04:50.702Z,10.60
2017-04-15T09:05:49.783Z,10.60
2017-04-15T09:06:48.870Z,10.60
2017-04-15T09:07:47.948Z,10.70
2017-04-15T09:08:47.063Z,10.70
2017-04-15T09:09:46.174Z,10.70
2017-04-15T09:10:45.570Z,10.80
2017-04-15T09:11:44.698Z,10.80
2017-04-15T09:12:43.787Z,10.80
2017-04-15T09:13:43.096Z,10.70
2017-04-15T09:14:42.210Z,10.70
2017-04-15T09:15:42.141Z,10.80
2017-04-15T09:16:41.240Z,10.80
2017-04-15T09:17:40.619Z,10.80
2017-04-15T09:18:39.733Z,10.80
2017-04-15T09:19:38.844Z,10.80
2017-04-15T09:20:37.951Z,10.80
2017-04-15T09:21:37.798Z,10.80
2017-04-15T09:22:36.897Z,10.80
2017-04-15T09:23:35.978Z,10.80
2017-04-15T09:24:35.231Z,10.70
2017-04-15T09:25:34.338Z,10.70
2017-04-15T09:26:33.460Z,10.80
2017-04-15T09:27:32.559Z,10.90
2017-04-15T09:28:32.717Z,10.90
2017-04-15T09:29:31.822Z,10.90
2017-04-15T09:30:31.195Z,11.00
2017-04-15T09:31:30.303Z,11.00
2017-04-15T09:32:29.507Z,11.00
2017-04-15T09:33:28.594Z,11.00
2017-04-15T09:34:27.695Z,11.10
2017-04-15T09:35:27.295Z,11.10
2017-04-15T09:36:26.421Z,11.20
2017-04-15T09:37:25.527Z,11.20
2017-04-15T09:38:24.615Z,11.20
2017-04-15T09:39:23.704Z,11.20
2017-04-15T09:40:22.799Z,11.30
2017-04-15T09:41:22.030Z,11.30
2017-04-15T09:42:21.114Z,11.30
2017-04-15T09:43:20.218Z,11.30
2017-04-15T09:44:19.331Z,11.40
2017-04-15T09:45:18.418Z,11.50
2017-04-15T09:46:17.550Z,11.60
2017-04-15T09:47:16.794Z,11.60
2017-04-15T09:48:15.867Z,11.70
2017-04-15T09:49:14.960Z,11.90
2017-04-15T09:50:14.079Z,12.00
2017-04-15T09:51:13.942Z,12.10
2017-04-15T09:52:13.063Z,12.30
2017-04-15T09:53:12.151Z,12.50
2017-04-15T09:54:11.230Z,12.60
2017-04-15T09:55:10.317Z,12.70
2017-04-15T09:56:09.453Z,12.80
2017-04-15T09:57:08.578Z,12.80
2017-04-15T09:58:07.671Z,12.90
2017-04-15T09:59:06.783Z,12.90
2017-04-15T10:00:05.893Z,13.00
2017-04-15T10:01:05.135Z,13.10
2017-04-15T10:02:04.243Z,13.20
2017-04-15T10:03:03.316Z,13.10
2017-04-15T10:04:02.559Z,13.20
2017-04-15T10:05:01.670Z,13.30
2017-04-15T10:06:00.748Z,13.40
2017-04-15T10:06:59.822Z,13.40
2017-04-15T10:07:58.909Z,13.50
2017-04-15T10:08:57.979Z,13.50
2017-04-15T10:09:57.846Z,13.30
2017-04-15T10:10:56.934Z,13.20
2017-04-15T10:11:56.026Z,13.10
2017-04-15T10:12:55.320Z,13.20
2017-04-15T10:13:54.397Z,13.20
2017-04-15T10:14:53.636Z,13.20
2017-04-15T10:15:52.722Z,13.10
2017-04-15T10:16:51.822Z,12.90
2017-04-15T10:17:50.948Z,12.80
2017-04-15T10:18:50.058Z,12.70
2017-04-15T10:20:55.831Z,12.70
2017-04-15T10:21:55.163Z,12.80
2017-04-15T10:22:54.256Z,12.80
2017-04-15T10:23:53.370Z,12.80
2017-04-15T10:24:52.448Z,12.90
2017-04-15T10:25:51.960Z,13.00
2017-04-15T10:26:51.103Z,13.10
2017-04-15T10:27:50.304Z,13.00
2017-04-15T10:28:49.399Z,12.90
2017-04-15T10:29:48.511Z,12.90
2017-04-15T10:30:47.584Z,12.90
2017-04-15T10:31:46.668Z,12.90
2017-04-15T10:32:45.754Z,12.90
2017-04-15T10:33:44.839Z,13.00
2017-04-15T10:34:43.924Z,13.00
2017-04-15T10:35:43.006Z,12.90
2017-04-15T10:36:42.970Z,12.80
2017-04-15T10:37:42.051Z,12.90
2017-04-15T10:38:41.139Z,12.90
2017-04-15T10:39:40.203Z,12.80
2017-04-15T10:40:40.038Z,12.70
2017-04-15T10:41:39.110Z,12.70
2017-04-15T10:42:38.206Z,12.50
2017-04-15T10:43:37.286Z,12.30
2017-04-15T10:44:36.370Z,12.20
2017-04-15T10:45:35.462Z,12.10
2017-04-15T10:46:34.526Z,12.00
2017-04-15T10:47:34.285Z,11.80
2017-04-15T10:48:33.335Z,11.80
2017-04-15T10:49:32.674Z,11.90
2017-04-15T10:50:32.010Z,11.70
2017-04-15T10:51:31.086Z,11.50
2017-04-15T10:52:30.150Z,11.30
2017-04-15T10:53:29.987Z,11.10
2017-04-15T10:54:29.061Z,11.10
2017-04-15T10:55:28.458Z,10.90
2017-04-15T10:56:27.562Z,10.80
2017-04-15T10:57:26.642Z,10.70
2017-04-15T10:58:25.955Z,10.60
2017-04-15T10:59:25.036Z,10.60
2017-04-15T11:00:24.090Z,10.60
2017-04-15T11:01:23.154Z,10.60
2017-04-15T11:02:22.262Z,10.60
2017-04-15T11:03:21.376Z,10.50
2017-04-15T11:04:20.511Z,10.30
2017-04-15T11:05:19.572Z,10.20
2017-04-15T11:06:18.635Z,10.10
2017-04-15T11:07:17.983Z,9.90
2017-04-15T11:08:18.184Z,9.80
2017-04-15T11:09:17.424Z,9.70
2017-04-15T11:10:16.529Z,9.70
2017-04-15T11:11:15.607Z,9.60
2017-04-15T11:12:14.789Z,9.60
2017-04-15T11:13:13.878Z,9.50
2017-04-15T11:14:12.994Z,9.40
2017-04-15T11:15:12.962Z,9.30
2017-04-15T11:16:12.053Z,9.20
2017-04-15T11:17:11.154Z,9.20
2017-04-15T11:18:10.222Z,9.10
2017-04-15T11:19:09.311Z,9.10
2017-04-15T11:20:08.411Z,9.10
2017-04-15T11:21:07.496Z,9.10
2017-04-15T11:22:06.666Z,9.10
2017-04-15T11:23:05.750Z,9.10
2017-04-15T11:24:04.822Z,9.10
2017-04-15T11:25:03.902Z,9.10
2017-04-15T11:26:02.994Z,9.20
2017-04-15T11:27:02.091Z,9.30
2017-04-15T11:28:01.155Z,9.40
2017-04-15T11:29:00.214Z,9.40
2017-04-15T11:29:59.282Z,9.50
2017-04-15T11:30:58.422Z,9.60
2017-04-15T11:31:57.542Z,9.70
2017-04-15T11:32:57.387Z,9.80
2017-04-15T11:33:56.458Z,9.90
2017-04-15T11:34:55.532Z,10.00
2017-04-15T11:35:54.612Z,10.00
2017-04-15T11:36:53.699Z,10.20
2017-04-15T11:37:52.914Z,10.30
2017-04-15T11:38:52.003Z,10.40
2017-04-15T11:39:51.083Z,10.40
2017-04-15T11:40:50.158Z,10.50
2017-04-15T11:41:49.232Z,10.50
2017-04-15T11:42:48.435Z,10.60
2017-04-15T11:43:47.556Z,10.70
2017-04-15T11:44:46.668Z,10.80
2017-04-15T11:45:46.490Z,10.90
2017-04-15T11:46:45.554Z,11.00
2017-04-15T11:47:44.640Z,11.10
2017-04-15T11:48:44.082Z,11.10
2017-04-15T11:49:43.170Z,11.30
2017-04-15T11:50:42.226Z,11.30
2017-04-15T11:51:41.290Z,11.40
2017-04-15T11:52:41.230Z,11.40
2017-04-15T11:53:40.307Z,11.50
2017-04-15T11:54:39.414Z,11.50
2017-04-15T11:55:38.486Z,11.60
2017-04-15T11:56:37.754Z,11.70
2017-04-15T11:57:36.896Z,11.80
2017-04-15T11:58:35.976Z,11.90
2017-04-15T11:59:35.354Z,12.00
2017-04-15T12:00:34.454Z,12.10
2017-04-15T12:01:33.526Z,12.30
2017-04-15T12:02:32.590Z,12.40
2017-04-15T12:03:31.715Z,12.60
2017-04-15T12:04:30.793Z,12.70
2017-04-15T12:05:30.184Z,12.80
2017-04-15T12:06:29.254Z,12.90
2017-04-15T12:07:28.320Z,13.10
2017-04-15T12:08:27.396Z,13.00
2017-04-15T12:09:26.465Z,13.00
2017-04-15T12:10:26.279Z,13.00
2017-04-15T12:11:25.534Z,13.10
2017-04-15T12:12:24.610Z,13.10
2017-04-15T12:13:23.732Z,13.10
2017-04-15T12:14:22.809Z,13.00
2017-04-15T12:15:21.879Z,13.00
2017-04-15T12:16:21.702Z,13.10
2017-04-15T12:17:20.331Z,13.00
2017-04-15T12:18:19.679Z,13.10
2017-04-15T12:19:18.806Z,13.20
2017-04-15T12:20:17.902Z,13.20
2017-04-15T12:21:16.979Z,13.30
2017-04-15T12:22:16.066Z,13.50
2017-04-15T12:23:15.197Z,13.60
2017-04-15T12:24:14.690Z,13.40
2017-04-15T12:25:13.803Z,13.40
2017-04-15T12:26:12.874Z,13.50
2017-04-15T12:27:11.958Z,13.50
2017-04-15T12:28:11.029Z,13.60
2017-04-15T12:29:10.150Z,13.70
2017-04-15T12:30:09.961Z,13.60
2017-04-15T12:31:09.043Z,13.40
2017-04-15T12:32:08.158Z,13.40
2017-04-15T12:33:07.238Z,13.30
2017-04-15T12:34:06.330Z,13.40
2017-04-15T12:35:05.479Z,13.40
2017-04-15T12:36:05.303Z,13.30
2017-04-15T12:37:04.392Z,13.30
2017-04-15T12:38:03.478Z,13.40
2017-04-15T12:39:02.633Z,13.40
2017-04-15T12:40:01.691Z,13.40
2017-04-15T12:41:00.886Z,13.40
2017-04-15T12:41:59.967Z,13.60
2017-04-15T12:42:59.044Z,13.70
2017-04-15T12:43:58.148Z,13.70
2017-04-15T12:44:57.216Z,13.70
2017-04-15T12:45:56.307Z,13.70
2017-04-15T12:46:55.436Z,13.70
2017-04-15T12:47:54.512Z,13.70
2017-04-15T12:48:53.607Z,13.60
2017-04-15T12:49:52.679Z,13.60
2017-04-15T12:50:51.751Z,13.60